| time (UTC) | temp F | wind direction | speed knots | gust knots | rain 1hr in | rain 24hr in | rain mn in | humidity % | barometer mb |
| 20260506202023 | 48 | 277 | 1.7 | 1.7 | 0.00 | 0.32 | 0.27 | 96 | 1004.5 |
| 20260506201041 | 48 | 277 | 1.7 | 1.7 | 0.00 | 0.32 | 0.27 | 96 | 1004.5 |
| 20260506200022 | 49 | 277 | 1.7 | 1.7 | 0.00 | 0.32 | 0.27 | 96 | 1004.4 |
| 20260506195023 | 49 | 277 | 1.7 | 1.7 | 0.00 | 0.32 | 0.27 | 96 | 1004.3 |
| 20260506194022 | 49 | 277 | 1.7 | 1.7 | 0.00 | 0.32 | 0.27 | 96 | 1004.3 |
| 20260506193024 | 49 | 277 | 1.7 | 1.7 | 0.01 | 0.32 | 0.27 | 96 | 1004.3 |
| 20260506192022 | 49 | 277 | 1.7 | 1.7 | 0.01 | 0.33 | 0.27 | 97 | 1004.2 |
| 20260506191021 | 49 | 277 | 1.7 | 1.7 | 0.01 | 0.33 | 0.27 | 97 | 1004.2 |
| 20260506190021 | 49 | 277 | 1.7 | 1.7 | 0.01 | 0.34 | 0.27 | 96 | 1004.2 |
| 20260506185021 | 49 | 277 | 1.7 | 1.7 | 0.01 | 0.37 | 0.27 | 96 | 1004.0 |
| 20260506184022 | 49 | 277 | 1.7 | 1.7 | 0.02 | 0.37 | 0.27 | 97 | 1004.0 |
| 20260506183023 | 48 | 277 | 1.7 | 1.7 | 0.01 | 0.36 | 0.26 | 96 | 1003.9 |
| 20260506182022 | 49 | 277 | 1.7 | 1.7 | 0.01 | 0.36 | 0.26 | 97 | 1003.7 |
| 20260506181022 | 49 | 277 | 1.7 | 1.7 | 0.02 | 0.37 | 0.26 | 97 | 1003.7 |
| 20260506180026 | 48 | 277 | 1.7 | 1.7 | 0.02 | 0.38 | 0.26 | 96 | 1003.7 |
| 20260506175022 | 48 | 277 | 1.7 | 1.7 | 0.03 | 0.38 | 0.26 | 97 | 1003.8 |
| 20260506174022 | 48 | 277 | 1.7 | 1.7 | 0.03 | 0.37 | 0.25 | 96 | 1003.8 |
| 20260506173023 | 48 | 277 | 1.7 | 1.7 | 0.04 | 0.37 | 0.25 | 96 | 1003.8 |
| 20260506172022 | 48 | 277 | 1.7 | 1.7 | 0.05 | 0.37 | 0.25 | 96 | 1003.7 |
| 20260506171023 | 49 | 277 | 1.7 | 1.7 | 0.05 | 0.36 | 0.24 | 96 | 1003.8 |
| 20260506170022 | 51 | 277 | 1.7 | 1.7 | 0.06 | 0.36 | 0.24 | 96 | 1003.9 |
| 20260506165029 | 51 | 277 | 1.7 | 1.7 | 0.06 | 0.35 | 0.23 | 96 | 1003.9 |
| 20260506164021 | 53 | 277 | 1.7 | 1.7 | 0.06 | 0.34 | 0.22 | 96 | 1003.9 |
| 20260506163022 | 53 | 277 | 1.7 | 1.7 | 0.05 | 0.33 | 0.21 | 96 | 1003.9 |
| 20260506162023 | 53 | 277 | 1.7 | 1.7 | 0.04 | 0.32 | 0.20 | 97 | 1003.9 |
| 20260506161022 | 53 | 277 | 1.7 | 1.7 | 0.03 | 0.31 | 0.19 | 97 | 1004.1 |
| 20260506160021 | 53 | 277 | 1.7 | 1.7 | 0.02 | 0.30 | 0.18 | 97 | 1004.1 |
| 20260506155021 | 53 | 277 | 1.7 | 1.7 | 0.01 | 0.29 | 0.17 | 96 | 1004.1 |
| 20260506154022 | 53 | 277 | 1.7 | 1.7 | 0.01 | 0.28 | 0.16 | 97 | 1004.1 |
| 20260506153021 | 53 | 277 | 1.7 | 1.7 | 0.03 | 0.28 | 0.16 | 97 | 1004.2 |
| 20260506152021 | 53 | 277 | 1.7 | 1.7 | 0.03 | 0.28 | 0.16 | 97 | 1004.2 |
| 20260506151021 | 53 | 277 | 1.7 | 1.7 | 0.04 | 0.28 | 0.16 | 97 | 1004.2 |
| 20260506150022 | 52 | 277 | 1.7 | 1.7 | 0.06 | 0.28 | 0.16 | 97 | 1004.4 |
| 20260506145026 | 52 | 277 | 1.7 | 1.7 | 0.08 | 0.28 | 0.16 | 97 | 1004.4 |
| 20260506144025 | 51 | 277 | 1.7 | 1.7 | 0.07 | 0.27 | 0.15 | 96 | 1004.4 |
| 20260506143023 | 51 | 277 | 1.7 | 1.7 | 0.06 | 0.25 | 0.13 | 96 | 1004.7 |
| 20260506142023 | 51 | 277 | 1.7 | 1.7 | 0.06 | 0.25 | 0.13 | 96 | 1004.7 |
| 20260506141024 | 51 | 277 | 1.7 | 1.7 | 0.05 | 0.24 | 0.12 | 96 | 1005.1 |
| 20260506140024 | 51 | 277 | 1.7 | 1.7 | 0.03 | 0.22 | 0.10 | 96 | 1005.1 |
| 20260506135022 | 50 | 277 | 1.7 | 1.7 | 0.01 | 0.20 | 0.08 | 96 | 1004.8 |
| 20260506134024 | 50 | 277 | 1.7 | 1.7 | 0.01 | 0.20 | 0.08 | 96 | 1004.8 |
| 20260506133022 | 50 | 277 | 1.7 | 1.7 | 0.00 | 0.19 | 0.07 | 96 | 1004.8 |
| 20260506132023 | 50 | 277 | 1.7 | 1.7 | 0.00 | 0.19 | 0.07 | 96 | 1004.9 |
| 20260506131021 | 50 | 277 | 1.7 | 1.7 | 0.00 | 0.19 | 0.07 | 96 | 1004.9 |
| 20260506130021 | 50 | 277 | 1.7 | 1.7 | 0.01 | 0.19 | 0.07 | 96 | 1004.9 |
| 20260506125022 | 50 | 277 | 1.7 | 1.7 | 0.01 | 0.19 | 0.07 | 96 | 1005.1 |
| 20260506124021 | 50 | 277 | 1.7 | 1.7 | 0.02 | 0.19 | 0.07 | 96 | 1005.0 |
| 20260506123022 | 50 | 277 | 1.7 | 1.7 | 0.03 | 0.19 | 0.07 | 96 | 1005.1 |
| 20260506122021 | 50 | 277 | 1.7 | 1.7 | 0.04 | 0.19 | 0.07 | 95 | 1005.2 |
| 20260506121022 | 50 | 277 | 1.7 | 1.7 | 0.04 | 0.19 | 0.07 | 95 | 1005.2 |
| 20260506120022 | 50 | 277 | 1.7 | 1.7 | 0.03 | 0.18 | 0.06 | 95 | 1005.4 |
| 20260506115021 | 50 | 277 | 1.7 | 1.7 | 0.04 | 0.18 | 0.06 | 95 | 1005.6 |
| 20260506114022 | 50 | 277 | 1.7 | 1.7 | 0.03 | 0.17 | 0.05 | 95 | 1005.7 |
| 20260506113058 | 50 | 277 | 1.7 | 1.7 | 0.02 | 0.16 | 0.04 | 95 | 1005.8 |
| 20260506112022 | 50 | 277 | 1.7 | 1.7 | 0.02 | 0.15 | 0.03 | 95 | 1005.8 |
| 20260506111022 | 50 | 277 | 1.7 | 1.7 | 0.02 | 0.15 | 0.03 | 95 | 1005.6 |
| 20260506110024 | 49 | 277 | 1.7 | 1.7 | 0.02 | 0.15 | 0.03 | 95 | 1005.4 |
| 20260506105023 | 49 | 277 | 1.7 | 1.7 | 0.02 | 0.14 | 0.02 | 95 | 1005.5 |
| 20260506104022 | 49 | 277 | 1.7 | 1.7 | 0.02 | 0.14 | 0.02 | 95 | 1005.5 |
| 20260506103022 | 49 | 277 | 1.7 | 1.7 | 0.02 | 0.14 | 0.02 | 95 | 1005.5 |
| 20260506102022 | 49 | 277 | 1.7 | 1.7 | 0.01 | 0.13 | 0.01 | 94 | 1005.5 |
| 20260506101021 | 49 | 277 | 1.7 | 1.7 | 0.01 | 0.13 | 0.01 | 94 | 1005.6 |
| 20260506100022 | 49 | 277 | 1.7 | 1.7 | 0.01 | 0.13 | 0.01 | 94 | 1005.5 |
| 20260506095023 | 49 | 277 | 1.7 | 1.7 | 0.00 | 0.12 | 0.00 | 94 | 1005.6 |
| 20260506094022 | 49 | 277 | 1.7 | 1.7 | 0.00 | 0.12 | 0.00 | 93 | 1005.6 |
| 20260506093022 | 49 | 277 | 1.7 | 1.7 | 0.00 | 0.12 | 0.00 | 93 | 1005.5 |
| 20260506092022 | 49 | 277 | 1.7 | 1.7 | 0.00 | 0.12 | 0.00 | 93 | 1005.4 |
| 20260506091022 | 49 | 277 | 1.7 | 1.7 | 0.00 | 0.12 | 0.00 | 93 | 1005.4 |
| 20260506090023 | 49 | 277 | 1.7 | 1.7 | 0.00 | 0.12 | 0.00 | 92 | 1005.5 |
| 20260506085021 | 50 | 277 | 1.7 | 1.7 | 0.00 | 0.12 | 0.00 | 92 | 1005.5 |
| 20260506084022 | 50 | 277 | 1.7 | 1.7 | 0.00 | 0.12 | 0.00 | 92 | 1005.5 |
| 20260506083022 | 50 | 277 | 1.7 | 1.7 | 0.00 | 0.12 | 0.00 | 92 | 1005.8 |
| 20260506082022 | 50 | 277 | 1.7 | 1.7 | 0.00 | 0.12 | 0.00 | 92 | 1006.1 |
| 20260506081022 | 50 | 277 | 1.7 | 1.7 | 0.00 | 0.12 | 0.00 | 91 | 1006.1 |
| 20260506073023 | 51 | 277 | 1.7 | 1.7 | 0.00 | 0.12 | 0.00 | 90 | 1006.3 |
| 20260506072023 | 51 | 277 | 1.7 | 1.7 | 0.00 | 0.12 | 0.00 | 90 | 1006.5 |
| 20260506071022 | 51 | 277 | 1.7 | 1.7 | 0.00 | 0.12 | 0.00 | 89 | 1006.6 |
| 20260506062022 | 51 | 277 | 1.7 | 1.7 | 0.00 | 0.12 | 0.00 | 89 | 1006.7 |
| 20260506061022 | 51 | 277 | 1.7 | 1.7 | 0.00 | 0.12 | 0.00 | 88 | 1006.7 |
| 20260506051023 | 53 | 277 | 1.7 | 2.6 | 0.00 | 0.12 | 0.00 | 87 | 1007.3 |
| 20260506045022 | 53 | 276 | 1.7 | 2.6 | 0.00 | 0.12 | 0.00 | 87 | 1007.6 |
| 20260506044022 | 54 | 266 | 1.7 | 2.6 | 0.00 | 0.12 | 0.00 | 87 | 1007.4 |
| 20260506043023 | 54 | 291 | 2.6 | 4.3 | 0.00 | 0.12 | 0.00 | 87 | 1007.7 |
| 20260506042022 | 54 | 291 | 1.7 | 2.6 | 0.00 | 0.12 | 0.00 | 87 | 1007.7 |
| 20260506041022 | 54 | 274 | 0.9 | 2.6 | 0.00 | 0.12 | 0.00 | 86 | 1007.9 |
| 20260506040022 | 54 | 303 | 1.7 | 4.3 | 0.00 | 0.12 | 0.00 | 86 | 1007.9 |
| 20260506035022 | 54 | 280 | 1.7 | 4.3 | 0.00 | 0.12 | 0.12 | 86 | 1007.7 |
| 20260506034022 | 54 | 268 | 1.7 | 4.3 | 0.00 | 0.12 | 0.12 | 85 | 1007.7 |
| 20260506033022 | 54 | 302 | 2.6 | 4.3 | 0.00 | 0.12 | 0.12 | 85 | 1007.8 |
| 20260506032022 | 54 | 288 | 2.6 | 5.2 | 0.00 | 0.12 | 0.12 | 84 | 1007.7 |
| 20260506031023 | 55 | 273 | 1.7 | 1.7 | 0.00 | 0.12 | 0.12 | 83 | 1007.7 |
| 20260506030023 | 54 | 232 | 0.0 | 1.7 | 0.00 | 0.12 | 0.12 | 82 | 1007.7 |
| 20260506025022 | 54 | 314 | 2.6 | 7.0 | 0.00 | 0.12 | 0.12 | 82 | 1007.5 |
| 20260506024022 | 54 | 304 | 2.6 | 6.1 | 0.00 | 0.12 | 0.12 | 82 | 1007.6 |
| 20260506023023 | 54 | 292 | 2.6 | 6.1 | 0.00 | 0.12 | 0.12 | 82 | 1007.6 |
| 20260506022023 | 54 | 299 | 1.7 | 5.2 | 0.00 | 0.12 | 0.12 | 82 | 1007.7 |
| 20260506021023 | 55 | 306 | 1.7 | 5.2 | 0.00 | 0.12 | 0.12 | 81 | 1007.7 |
| 20260506020023 | 55 | 309 | 1.7 | 4.3 | 0.00 | 0.12 | 0.12 | 81 | 1007.7 |
| 20260506015022 | 55 | 304 | 3.5 | 6.1 | 0.00 | 0.12 | 0.12 | 81 | 1007.7 |
| 20260506014021 | 56 | 321 | 4.3 | 12.2 | 0.00 | 0.12 | 0.12 | 80 | 1007.3 |
| 20260506013022 | 57 | 291 | 4.3 | 11.3 | 0.00 | 0.12 | 0.12 | 81 | 1006.9 |
| 20260506012022 | 57 | 283 | 3.5 | 7.8 | 0.00 | 0.12 | 0.12 | 82 | 1006.8 |
| 20260506011022 | 59 | 329 | 4.3 | 10.4 | 0.00 | 0.12 | 0.12 | 83 | 1006.5 |
| 20260506010022 | 60 | 319 | 4.3 | 7.8 | 0.00 | 0.12 | 0.12 | 84 | 1006.0 |
| 20260506005021 | 61 | 331 | 2.6 | 7.0 | 0.01 | 0.12 | 0.12 | 85 | 1005.9 |
| 20260506004022 | 61 | 293 | 2.6 | 4.3 | 0.01 | 0.12 | 0.12 | 84 | 1005.4 |
| 20260506003022 | 61 | 312 | 2.6 | 6.1 | 0.01 | 0.12 | 0.12 | 83 | 1005.2 |
| 20260506002021 | 62 | 308 | 1.7 | 6.1 | 0.01 | 0.12 | 0.12 | 82 | 1005.2 |
| 20260506001022 | 62 | 298 | 2.6 | 6.1 | 0.01 | 0.12 | 0.12 | 82 | 1005.3 |
| 20260506000023 | 62 | 304 | 2.6 | 7.0 | 0.01 | 0.12 | 0.12 | 82 | 1004.7 |
| 20260505235021 | 63 | 289 | 5.2 | 7.0 | 0.00 | 0.11 | 0.11 | 79 | 1004.7 |
| 20260505234023 | 63 | 276 | 4.3 | 7.0 | 0.00 | 0.11 | 0.11 | 77 | 1004.7 |
| 20260505233023 | 64 | 289 | 2.6 | 5.2 | 0.00 | 0.11 | 0.11 | 76 | 1004.6 |
| 20260505232022 | 64 | 265 | 2.6 | 7.0 | 0.00 | 0.11 | 0.11 | 76 | 1004.3 |
| 20260505231022 | 64 | 287 | 2.6 | 7.0 | 0.00 | 0.11 | 0.11 | 76 | 1004.3 |
| 20260505230024 | 64 | 260 | 2.6 | 6.1 | 0.00 | 0.11 | 0.11 | 78 | 1004.3 |
| 20260505225022 | 63 | 281 | 3.5 | 6.1 | 0.00 | 0.11 | 0.11 | 78 | 1004.1 |
| 20260505224022 | 63 | 226 | 4.3 | 7.0 | 0.00 | 0.11 | 0.11 | 79 | 1004.1 |
| 20260505223022 | 64 | 216 | 2.6 | 6.1 | 0.00 | 0.11 | 0.11 | 80 | 1004.2 |
| 20260505222022 | 63 | 242 | 4.3 | 7.8 | 0.01 | 0.11 | 0.11 | 81 | 1004.2 |
| 20260505221023 | 62 | 228 | 3.5 | 7.8 | 0.01 | 0.11 | 0.11 | 82 | 1004.3 |
| 20260505220022 | 62 | 231 | 2.6 | 6.1 | 0.01 | 0.11 | 0.11 | 82 | 1004.4 |
| 20260505215022 | 62 | 229 | 5.2 | 7.8 | 0.01 | 0.11 | 0.11 | 82 | 1004.4 |
| 20260505214023 | 62 | 240 | 5.2 | 8.7 | 0.03 | 0.11 | 0.11 | 82 | 1004.4 |
| 20260505213023 | 62 | 261 | 6.1 | 11.3 | 0.04 | 0.11 | 0.11 | 82 | 1004.5 |
| 20260505212023 | 62 | 259 | 6.1 | 10.4 | 0.03 | 0.10 | 0.10 | 82 | 1004.8 |
| 20260505211021 | 62 | 274 | 7.0 | 13.0 | 0.03 | 0.10 | 0.10 | 83 | 1004.4 |
| 20260505210040 | 62 | 277 | 6.1 | 13.0 | 0.03 | 0.10 | 0.10 | 84 | 1004.4 |
| 20260505205022 | 61 | 263 | 9.6 | 17.4 | 0.03 | 0.10 | 0.10 | 84 | 1004.2 |
| 20260505204023 | 62 | 279 | 7.8 | 14.8 | 0.01 | 0.08 | 0.08 | 82 | 1003.6 |
| 20260505203023 | 62 | 293 | 7.0 | 14.8 | 0.00 | 0.07 | 0.07 | 80 | 1003.6 |